createdAt,value
2018-08-20T00:01:21.598Z,7.93
2018-08-20T00:03:50.771Z,6.93
2018-08-20T00:06:19.684Z,7.00
2018-08-20T00:08:48.418Z,7.17
2018-08-20T00:11:17.186Z,7.57
2018-08-20T00:13:46.452Z,7.40
2018-08-20T00:16:15.746Z,7.10
2018-08-20T00:18:45.804Z,7.10
2018-08-20T00:21:14.425Z,7.60
2018-08-20T00:23:43.324Z,7.10
2018-08-20T00:26:12.664Z,7.20
2018-08-20T00:28:41.816Z,7.60
2018-08-20T00:31:10.478Z,7.20
2018-08-20T00:33:39.198Z,7.43
2018-08-20T00:36:07.856Z,6.90
2018-08-20T00:38:36.635Z,7.10
2018-08-20T00:41:05.366Z,7.37
2018-08-20T00:43:33.982Z,7.63
2018-08-20T00:46:02.640Z,7.03
2018-08-20T00:48:31.256Z,7.50
2018-08-20T00:50:59.889Z,6.87
2018-08-20T00:53:28.558Z,7.60
2018-08-20T00:55:57.234Z,7.90
2018-08-20T00:58:25.847Z,7.97
2018-08-20T01:00:54.480Z,7.30
2018-08-20T01:03:23.257Z,7.23
2018-08-20T01:05:51.985Z,8.20
2018-08-20T01:08:21.060Z,7.40
2018-08-20T01:10:49.812Z,7.43
2018-08-20T01:13:18.431Z,7.40
2018-08-20T01:15:49.312Z,7.30
2018-08-20T01:18:18.332Z,7.20
2018-08-20T01:20:46.952Z,6.53
2018-08-20T01:23:15.659Z,7.20
2018-08-20T01:25:44.281Z,7.43
2018-08-20T01:28:13.629Z,6.80
2018-08-20T01:30:42.207Z,6.83
2018-08-20T01:33:16.545Z,7.67
2018-08-20T01:35:45.167Z,7.00
2018-08-20T01:38:14.589Z,7.03
2018-08-20T01:40:43.497Z,7.07
2018-08-20T01:43:12.075Z,6.90
2018-08-20T01:45:40.860Z,6.70
2018-08-20T01:48:09.737Z,6.40
2018-08-20T01:50:38.406Z,6.27
2018-08-20T01:53:07.003Z,6.60
2018-08-20T01:55:35.645Z,7.07
2018-08-20T01:58:04.267Z,6.77
2018-08-20T02:00:32.896Z,7.60
2018-08-20T02:03:04.386Z,6.73
2018-08-20T02:05:33.961Z,6.40
2018-08-20T02:08:02.814Z,6.80
2018-08-20T02:10:32.561Z,5.90
2018-08-20T02:13:01.178Z,6.50
2018-08-20T02:15:29.923Z,6.37
2018-08-20T02:17:58.633Z,6.90
2018-08-20T02:20:27.268Z,7.03
2018-08-20T02:22:55.920Z,6.77
2018-08-20T02:25:24.804Z,6.83
2018-08-20T02:27:53.797Z,6.80
2018-08-20T02:30:22.387Z,7.07
2018-08-20T02:32:51.045Z,7.13
2018-08-20T02:35:19.751Z,5.90
2018-08-20T02:37:48.791Z,6.77
2018-08-20T02:40:18.303Z,6.10
2018-08-20T02:42:47.403Z,6.30
2018-08-20T02:45:17.793Z,6.73
2018-08-20T02:47:47.017Z,6.23
2018-08-20T02:50:16.204Z,6.07
2018-08-20T02:52:49.322Z,6.03
2018-08-20T02:55:17.979Z,6.40
2018-08-20T02:57:46.688Z,5.90
2018-08-20T03:00:15.496Z,6.60
2018-08-20T03:02:44.166Z,6.63
2018-08-20T03:05:13.362Z,6.90
2018-08-20T03:07:42.008Z,6.47
2018-08-20T03:10:13.146Z,6.63
2018-08-20T03:12:42.160Z,7.00
2018-08-20T03:15:11.510Z,6.70
2018-08-20T03:17:41.694Z,6.73
2018-08-20T03:20:11.128Z,6.90
2018-08-20T03:22:39.790Z,6.70
2018-08-20T03:25:08.928Z,6.67
2018-08-20T03:27:37.662Z,6.77
2018-08-20T03:30:07.409Z,6.90
2018-08-20T03:32:35.970Z,6.50
2018-08-20T03:35:05.649Z,7.03
2018-08-20T03:37:34.315Z,6.17
2018-08-20T03:40:03.058Z,6.90
2018-08-20T03:42:31.849Z,6.47
2018-08-20T03:45:00.477Z,6.77
2018-08-20T03:47:29.375Z,7.10
2018-08-20T03:49:59.030Z,7.40
2018-08-20T03:52:27.729Z,6.63
2018-08-20T03:54:56.320Z,6.93
2018-08-20T03:57:25.571Z,5.97
2018-08-20T03:59:54.943Z,7.17
2018-08-20T04:02:23.608Z,7.10
2018-08-20T04:04:52.192Z,7.33
2018-08-20T04:07:21.532Z,7.03
2018-08-20T04:09:50.169Z,6.63
2018-08-20T04:12:18.904Z,7.30
2018-08-20T04:14:48.184Z,7.30
2018-08-20T04:17:16.875Z,7.20
2018-08-20T04:19:45.588Z,7.50
2018-08-20T04:22:14.205Z,7.03
2018-08-20T04:24:42.792Z,7.60
2018-08-20T04:27:11.358Z,7.17
2018-08-20T04:29:39.997Z,6.83
2018-08-20T04:32:08.675Z,7.33
2018-08-20T04:34:37.288Z,7.27
2018-08-20T04:37:05.990Z,7.17
2018-08-20T04:39:34.594Z,7.97
2018-08-20T04:42:03.216Z,7.47
2018-08-20T04:44:31.838Z,7.40
2018-08-20T04:47:00.430Z,7.70
2018-08-20T04:49:29.846Z,7.83
2018-08-20T04:51:58.470Z,7.23
2018-08-20T04:54:27.411Z,7.80
2018-08-20T04:56:56.132Z,7.47
2018-08-20T04:59:24.721Z,8.37
2018-08-20T05:01:53.452Z,8.00
2018-08-20T05:04:22.089Z,8.17
2018-08-20T05:06:51.443Z,8.00
2018-08-20T05:09:20.107Z,7.80
2018-08-20T05:11:48.772Z,7.80
2018-08-20T05:14:17.414Z,7.60
2018-08-20T05:16:46.671Z,8.63
2018-08-20T05:19:15.421Z,8.07
2018-08-20T05:21:44.063Z,8.50
2018-08-20T05:24:12.700Z,8.10
2018-08-20T05:26:41.337Z,7.50
2018-08-20T05:29:09.994Z,7.87
2018-08-20T05:31:40.142Z,7.57
2018-08-20T05:34:08.869Z,7.67
2018-08-20T05:36:38.251Z,7.87
2018-08-20T05:39:08.717Z,7.30
2018-08-20T05:41:37.459Z,7.40
2018-08-20T05:44:06.174Z,7.10
2018-08-20T05:46:34.844Z,7.10
2018-08-20T05:49:03.538Z,7.60
2018-08-20T05:51:32.514Z,7.43
2018-08-20T05:54:01.313Z,7.60
2018-08-20T05:56:36.653Z,7.27
2018-08-20T05:59:05.345Z,7.10
2018-08-20T06:01:34.084Z,8.00
2018-08-20T06:04:02.877Z,7.60
2018-08-20T06:06:31.665Z,7.60
2018-08-20T06:09:00.397Z,11.43
2018-08-20T06:11:29.253Z,8.40
2018-08-20T06:13:57.926Z,6.87
2018-08-20T06:16:26.580Z,6.07
2018-08-20T06:18:55.280Z,7.10
2018-08-20T06:21:24.062Z,6.73
2018-08-20T06:23:52.688Z,6.33
2018-08-20T06:26:21.382Z,6.40
2018-08-20T06:28:50.139Z,5.77
2018-08-20T06:31:18.825Z,6.23
2018-08-20T06:33:47.443Z,7.10
2018-08-20T06:36:16.200Z,6.30
2018-08-20T06:38:44.951Z,6.67
2018-08-20T06:41:13.915Z,6.60
2018-08-20T06:43:42.574Z,6.33
2018-08-20T06:46:11.186Z,6.07
2018-08-20T06:48:39.976Z,6.03
2018-08-20T06:51:08.780Z,6.63
2018-08-20T06:53:37.364Z,5.80
2018-08-20T06:56:06.181Z,5.97
2018-08-20T06:58:34.907Z,5.80
2018-08-20T07:01:04.237Z,5.67
2018-08-20T07:03:33.547Z,6.47
2018-08-20T07:06:02.180Z,5.57
2018-08-20T07:08:31.596Z,5.90
2018-08-20T07:11:00.547Z,5.80
2018-08-20T07:13:34.254Z,6.37
2018-08-20T07:16:03.049Z,6.67
2018-08-20T07:18:31.683Z,5.43
2018-08-20T07:21:02.048Z,6.20
2018-08-20T07:23:31.472Z,5.30
2018-08-20T07:26:00.674Z,6.17
2018-08-20T07:28:29.337Z,5.93
2018-08-20T07:30:58.878Z,5.67
2018-08-20T07:33:27.846Z,6.80
2018-08-20T07:35:57.454Z,5.47
2018-08-20T07:38:26.669Z,5.43
2018-08-20T07:40:55.327Z,6.00
2018-08-20T07:43:24.069Z,6.43
2018-08-20T07:45:52.690Z,5.90
2018-08-20T07:48:21.454Z,5.67
2018-08-20T07:50:50.204Z,5.40
2018-08-20T07:53:18.953Z,5.80
2018-08-20T07:55:48.204Z,5.60
2018-08-20T07:58:17.015Z,5.60
2018-08-20T08:00:45.654Z,5.30
2018-08-20T08:03:14.339Z,5.13
2018-08-20T08:05:42.964Z,4.90
2018-08-20T08:08:11.942Z,4.90
2018-08-20T08:10:40.608Z,4.10
2018-08-20T08:13:09.360Z,5.27
2018-08-20T08:15:38.103Z,4.67
2018-08-20T08:18:07.085Z,5.07
2018-08-20T08:20:36.630Z,4.17
2018-08-20T08:23:09.959Z,5.23
2018-08-20T08:25:38.639Z,4.77
2018-08-20T08:28:07.245Z,5.30
2018-08-20T08:30:36.622Z,5.10
2018-08-20T08:33:05.376Z,4.80
2018-08-20T08:35:34.565Z,4.40
2018-08-20T08:38:03.299Z,3.73
2018-08-20T08:40:31.908Z,4.43
2018-08-20T08:43:00.684Z,4.70
2018-08-20T08:45:30.120Z,4.80
2018-08-20T08:47:58.782Z,3.50
2018-08-20T08:50:28.348Z,4.47
2018-08-20T08:52:57.135Z,4.07
2018-08-20T08:55:26.423Z,4.10
2018-08-20T08:57:54.993Z,4.10
2018-08-20T09:00:23.598Z,4.57
2018-08-20T09:02:52.413Z,4.90
2018-08-20T09:05:21.107Z,4.37
2018-08-20T09:07:49.767Z,3.93
2018-08-20T09:10:18.428Z,4.50
2018-08-20T09:12:47.094Z,4.90
2018-08-20T09:15:17.660Z,4.43
2018-08-20T09:17:46.429Z,4.77
2018-08-20T09:20:16.392Z,4.40
2018-08-20T09:22:45.101Z,4.30
2018-08-20T09:25:14.672Z,4.40
2018-08-20T09:27:44.846Z,4.03
2018-08-20T09:30:17.366Z,4.50
2018-08-20T09:32:47.018Z,4.43
2018-08-20T09:35:15.682Z,4.33
2018-08-20T09:37:44.370Z,4.13
2018-08-20T09:40:13.651Z,4.20
2018-08-20T09:42:43.249Z,4.40
2018-08-20T09:45:12.067Z,4.23
2018-08-20T09:47:42.302Z,3.93
2018-08-20T09:50:14.754Z,4.03
2018-08-20T09:52:43.663Z,4.37
2018-08-20T09:55:12.262Z,4.50
2018-08-20T09:57:41.142Z,4.80
2018-08-20T10:00:45.823Z,4.43
2018-08-20T10:03:15.370Z,3.90
2018-08-20T10:05:44.239Z,4.53
2018-08-20T10:08:13.585Z,4.53
2018-08-20T10:10:42.239Z,4.20
2018-08-20T10:13:10.944Z,4.17
2018-08-20T10:15:39.616Z,4.07
2018-08-20T10:18:08.718Z,4.23
2018-08-20T10:20:37.416Z,4.20
2018-08-20T10:23:06.189Z,3.80
2018-08-20T10:25:34.918Z,3.97
2018-08-20T10:28:03.571Z,3.60
2018-08-20T10:30:32.232Z,3.70
2018-08-20T10:33:00.930Z,4.23
2018-08-20T10:35:29.499Z,4.23
2018-08-20T10:37:58.240Z,4.30
2018-08-20T10:40:26.824Z,4.80
2018-08-20T10:42:55.459Z,5.00
2018-08-20T10:45:29.284Z,4.70
2018-08-20T10:47:57.911Z,4.67
2018-08-20T10:50:26.578Z,4.47
2018-08-20T10:52:55.214Z,4.70
2018-08-20T10:55:23.817Z,4.97
2018-08-20T10:57:52.501Z,5.07
2018-08-20T11:00:21.170Z,4.53
2018-08-20T11:02:50.435Z,4.73
2018-08-20T11:05:19.751Z,4.97
2018-08-20T11:07:48.441Z,4.80
2018-08-20T11:10:17.180Z,4.70
2018-08-20T11:12:45.752Z,5.03
2018-08-20T11:15:14.386Z,5.03
2018-08-20T11:17:43.241Z,4.30
2018-08-20T11:20:14.543Z,4.90
2018-08-20T11:22:43.388Z,4.50
2018-08-20T11:25:12.791Z,4.57
2018-08-20T11:27:41.522Z,5.00
2018-08-20T11:30:11.665Z,5.03
2018-08-20T11:32:40.305Z,4.60
2018-08-20T11:35:10.046Z,4.90
2018-08-20T11:37:38.726Z,4.80
2018-08-20T11:40:08.132Z,4.50
2018-08-20T11:42:37.582Z,5.23
2018-08-20T11:45:08.035Z,4.77
2018-08-20T11:47:36.667Z,4.70
2018-08-20T11:50:06.389Z,5.80
2018-08-20T11:52:35.115Z,4.50
2018-08-20T11:55:03.775Z,5.00
2018-08-20T11:57:33.056Z,4.73
2018-08-20T12:00:01.811Z,5.60
2018-08-20T12:02:30.807Z,5.10
2018-08-20T12:04:59.900Z,5.03
2018-08-20T12:07:28.993Z,5.03
2018-08-20T12:09:58.071Z,5.10
2018-08-20T12:12:27.509Z,4.57
2018-08-20T12:14:57.083Z,5.20
2018-08-20T12:17:26.659Z,4.90
2018-08-20T12:19:56.058Z,4.33
2018-08-20T12:22:24.648Z,4.70
2018-08-20T12:24:53.382Z,4.87
2018-08-20T12:27:21.944Z,4.80
2018-08-20T12:29:50.647Z,4.93
2018-08-20T12:32:19.960Z,4.47
2018-08-20T12:34:48.556Z,4.70
2018-08-20T12:37:17.146Z,4.20
2018-08-20T12:39:46.017Z,4.73
2018-08-20T12:42:14.654Z,5.07
2018-08-20T12:44:43.954Z,4.93
2018-08-20T12:47:12.635Z,4.47
2018-08-20T12:49:42.139Z,4.60
2018-08-20T12:52:11.058Z,4.70
2018-08-20T12:54:40.617Z,4.27
2018-08-20T12:57:09.526Z,4.37
2018-08-20T12:59:38.972Z,4.00
2018-08-20T13:02:07.616Z,4.43
2018-08-20T13:04:36.854Z,5.40
2018-08-20T13:07:06.375Z,4.60
2018-08-20T13:09:35.079Z,4.20
2018-08-20T13:12:03.696Z,4.60
2018-08-20T13:14:32.347Z,4.47
2018-08-20T13:17:01.540Z,4.40
2018-08-20T13:19:30.954Z,4.30
2018-08-20T13:21:59.549Z,4.50
2018-08-20T13:24:28.252Z,4.50
2018-08-20T13:26:56.869Z,4.20
2018-08-20T13:29:25.702Z,4.20
2018-08-20T13:31:55.191Z,4.97
2018-08-20T13:34:24.018Z,4.67
2018-08-20T13:36:53.548Z,4.50
2018-08-20T13:39:22.209Z,4.20
2018-08-20T13:41:50.916Z,4.37
2018-08-20T13:44:19.568Z,4.80
2018-08-20T13:46:48.329Z,4.17
2018-08-20T13:49:16.962Z,4.60
2018-08-20T13:51:45.725Z,4.80
2018-08-20T13:54:14.330Z,4.63
2018-08-20T13:56:43.402Z,4.57
2018-08-20T13:59:12.584Z,4.00
2018-08-20T14:01:41.769Z,3.70
2018-08-20T14:04:10.385Z,4.63
2018-08-20T14:06:39.245Z,4.53
2018-08-20T14:09:09.593Z,5.10
2018-08-20T14:11:38.310Z,4.60
2018-08-20T14:14:07.498Z,4.40
2018-08-20T14:16:36.177Z,4.37
2018-08-20T14:19:05.250Z,4.93
2018-08-20T14:21:33.837Z,4.23
2018-08-20T14:24:02.530Z,4.30
2018-08-20T14:26:31.975Z,4.03
2018-08-20T14:29:00.644Z,4.30
2018-08-20T14:31:29.549Z,4.37
2018-08-20T14:33:58.215Z,4.70
2018-08-20T14:36:27.010Z,4.77
2018-08-20T14:38:55.733Z,4.80
2018-08-20T14:41:24.795Z,4.70
2018-08-20T14:43:53.900Z,4.53
2018-08-20T14:46:23.660Z,4.77
2018-08-20T14:48:53.710Z,4.80
2018-08-20T14:51:22.477Z,5.47
2018-08-20T14:53:51.468Z,5.10
2018-08-20T14:56:20.898Z,4.63
2018-08-20T14:58:49.552Z,5.03
2018-08-20T15:01:18.380Z,4.60
2018-08-20T15:03:47.293Z,4.67
2018-08-20T15:06:15.953Z,4.20
2018-08-20T15:08:44.587Z,4.70
2018-08-20T15:11:13.379Z,4.10
2018-08-20T15:13:42.036Z,4.83
2018-08-20T15:16:10.706Z,4.50
2018-08-20T15:18:39.318Z,5.00
2018-08-20T15:21:07.944Z,5.13
2018-08-20T15:23:36.589Z,4.77
2018-08-20T15:26:05.226Z,4.60
2018-08-20T15:28:33.807Z,5.23
2018-08-20T15:31:02.479Z,4.63
2018-08-20T15:33:31.504Z,5.60
2018-08-20T15:36:00.285Z,4.80
2018-08-20T15:38:28.961Z,5.20
2018-08-20T15:40:57.683Z,4.70
2018-08-20T15:43:26.393Z,5.13
2018-08-20T15:45:55.375Z,4.70
2018-08-20T15:48:24.008Z,5.60
2018-08-20T15:50:52.652Z,7.67
2018-08-20T15:53:21.499Z,13.60
2018-08-20T15:55:50.236Z,19.80
2018-08-20T15:58:18.946Z,7.50
2018-08-20T16:00:48.295Z,10.20
2018-08-20T16:03:17.212Z,5.03
2018-08-20T16:05:45.861Z,7.80
2018-08-20T16:08:15.178Z,6.60
2018-08-20T16:10:43.980Z,6.30
2018-08-20T16:13:12.578Z,6.30
2018-08-20T16:15:41.594Z,7.40
2018-08-20T16:18:10.236Z,5.40
2018-08-20T16:20:39.056Z,5.83
2018-08-20T16:23:08.672Z,5.87
2018-08-20T16:25:37.760Z,5.63
2018-08-20T16:28:10.726Z,6.10
2018-08-20T16:30:39.381Z,7.50
2018-08-20T16:33:08.243Z,8.67
2018-08-20T16:35:36.897Z,11.70
2018-08-20T16:38:05.857Z,5.60
2018-08-20T16:40:34.617Z,4.97
2018-08-20T16:43:04.545Z,5.67
2018-08-20T16:45:33.367Z,6.00
2018-08-20T16:48:02.689Z,5.50
2018-08-20T16:50:32.013Z,6.50
2018-08-20T16:53:00.835Z,7.30
2018-08-20T16:55:29.636Z,5.60
2018-08-20T16:57:58.623Z,5.30
2018-08-20T17:00:28.029Z,5.43
2018-08-20T17:02:57.376Z,5.67
2018-08-20T17:05:33.218Z,5.13
2018-08-20T17:08:02.350Z,5.10
2018-08-20T17:10:30.972Z,5.20
2018-08-20T17:12:59.838Z,5.20
2018-08-20T17:15:29.064Z,5.50
2018-08-20T17:17:57.721Z,4.90
2018-08-20T17:20:26.578Z,5.10
2018-08-20T17:23:05.591Z,4.70
2018-08-20T17:25:34.280Z,4.77
2018-08-20T17:28:03.462Z,5.17
2018-08-20T17:30:32.275Z,4.67
2018-08-20T17:33:00.887Z,4.40
2018-08-20T17:35:29.607Z,5.00
2018-08-20T17:38:01.632Z,5.33
2018-08-20T17:40:30.401Z,4.80
2018-08-20T17:42:59.225Z,5.00
2018-08-20T17:45:28.833Z,5.00
2018-08-20T17:47:57.546Z,4.97
2018-08-20T17:50:41.342Z,5.27
2018-08-20T17:53:11.801Z,4.73
2018-08-20T17:55:41.564Z,5.10
2018-08-20T17:58:10.601Z,4.70
2018-08-20T18:00:44.942Z,4.70
2018-08-20T18:03:22.207Z,5.40
2018-08-20T18:05:57.144Z,4.03
2018-08-20T18:08:27.185Z,4.70
2018-08-20T18:10:55.985Z,4.80
2018-08-20T18:13:42.351Z,4.87
2018-08-20T18:16:12.266Z,5.47
2018-08-20T18:18:42.469Z,4.13
2018-08-20T18:21:11.217Z,4.70
2018-08-20T18:23:40.669Z,4.60
2018-08-20T18:26:09.544Z,4.40
2018-08-20T18:28:45.330Z,4.30
2018-08-20T18:31:21.371Z,5.07
2018-08-20T18:33:50.169Z,4.20
2018-08-20T18:36:22.840Z,4.60
2018-08-20T18:38:55.349Z,4.80
2018-08-20T18:42:33.546Z,4.50
2018-08-20T18:45:02.413Z,4.70
2018-08-20T18:47:31.106Z,4.70
2018-08-20T18:50:00.083Z,4.20
2018-08-20T18:52:29.821Z,3.80
2018-08-20T18:54:59.401Z,4.10
2018-08-20T18:57:32.581Z,3.90
2018-08-20T19:00:03.036Z,4.57
2018-08-20T19:02:38.286Z,4.17
2018-08-20T19:05:09.321Z,3.53
2018-08-20T19:07:38.092Z,4.13
2018-08-20T19:10:10.464Z,4.33
2018-08-20T19:12:39.191Z,4.33
2018-08-20T19:15:45.083Z,4.10
2018-08-20T19:18:17.939Z,4.30
2018-08-20T19:20:48.503Z,3.77
2018-08-20T19:23:21.258Z,3.90
2018-08-20T19:25:56.854Z,4.13
2018-08-20T19:28:25.938Z,4.10
2018-08-20T19:30:55.929Z,4.10
2018-08-20T19:33:27.127Z,3.43
2018-08-20T19:35:56.588Z,3.70
2018-08-20T19:38:25.779Z,3.63
2018-08-20T19:41:03.908Z,3.60
2018-08-20T19:43:48.170Z,3.63
2018-08-20T19:46:28.116Z,3.90
2018-08-20T19:49:02.115Z,4.30
2018-08-20T19:51:32.229Z,4.23
2018-08-20T19:54:00.977Z,4.03
2018-08-20T19:56:29.848Z,3.77
2018-08-20T19:58:58.537Z,4.00
2018-08-20T20:01:27.330Z,3.70
2018-08-20T20:03:56.129Z,4.67
2018-08-20T20:06:25.711Z,4.43
2018-08-20T20:08:54.393Z,4.10
2018-08-20T20:11:28.090Z,4.80
2018-08-20T20:14:01.692Z,3.80
2018-08-20T20:16:40.791Z,3.80
2018-08-20T20:19:10.143Z,4.50
2018-08-20T20:21:39.201Z,4.57
2018-08-20T20:24:08.547Z,4.13
2018-08-20T20:26:37.372Z,5.90
2018-08-20T20:29:07.756Z,6.50
2018-08-20T20:31:37.074Z,8.70
2018-08-20T20:34:05.832Z,8.13
2018-08-20T20:36:35.391Z,7.30
2018-08-20T20:39:05.612Z,6.93
2018-08-20T20:41:34.437Z,6.60
2018-08-20T20:44:04.018Z,6.90
2018-08-20T20:46:32.753Z,5.83
2018-08-20T20:49:01.493Z,5.80
2018-08-20T20:51:30.283Z,6.33
2018-08-20T20:53:59.106Z,6.50
2018-08-20T20:56:27.752Z,6.13
2018-08-20T20:58:56.525Z,6.90
2018-08-20T21:01:25.836Z,6.90
2018-08-20T21:03:54.551Z,6.60
2018-08-20T21:06:23.160Z,7.10
2018-08-20T21:08:52.448Z,6.43
2018-08-20T21:11:22.278Z,5.70
2018-08-20T21:13:50.950Z,5.63
2018-08-20T21:16:23.489Z,5.20
2018-08-20T21:18:53.627Z,4.70
2018-08-20T21:21:22.876Z,4.80
2018-08-20T21:23:51.575Z,4.20
2018-08-20T21:26:20.308Z,4.00
2018-08-20T21:28:50.158Z,4.30
2018-08-20T21:31:20.252Z,4.53
2018-08-20T21:33:49.570Z,4.33
2018-08-20T21:36:18.176Z,4.70
2018-08-20T21:38:46.840Z,4.70
2018-08-20T21:41:15.468Z,4.70
2018-08-20T21:43:47.853Z,4.50
2018-08-20T21:46:16.947Z,4.17
2018-08-20T21:48:46.062Z,4.53
2018-08-20T21:51:17.171Z,4.10
2018-08-20T21:53:45.787Z,5.00
2018-08-20T21:56:14.818Z,6.30
2018-08-20T21:58:44.266Z,4.97
2018-08-20T22:01:14.464Z,4.23
2018-08-20T22:03:43.529Z,4.00
2018-08-20T22:06:12.830Z,3.90
2018-08-20T22:08:41.943Z,4.73
2018-08-20T22:11:11.509Z,4.27
2018-08-20T22:13:40.257Z,4.27
2018-08-20T22:16:18.506Z,4.30
2018-08-20T22:18:49.537Z,4.30
2018-08-20T22:21:18.835Z,3.90
2018-08-20T22:23:47.945Z,4.20
2018-08-20T22:26:18.330Z,4.57
2018-08-20T22:28:48.967Z,4.53
2018-08-20T22:31:17.785Z,4.20
2018-08-20T22:33:55.571Z,4.23
2018-08-20T22:36:24.892Z,4.37
2018-08-20T22:38:55.900Z,3.93
2018-08-20T22:41:25.613Z,4.50
2018-08-20T22:43:54.388Z,4.60
2018-08-20T22:46:24.279Z,4.67
2018-08-20T22:48:54.417Z,4.10
2018-08-20T22:51:24.559Z,4.17
2018-08-20T22:53:58.183Z,4.40
2018-08-20T22:56:29.301Z,5.13
2018-08-20T22:59:00.279Z,4.40
2018-08-20T23:01:29.050Z,4.90
2018-08-20T23:03:57.921Z,4.67
2018-08-20T23:06:27.343Z,4.80
2018-08-20T23:08:56.008Z,4.60
2018-08-20T23:11:40.006Z,4.43
2018-08-20T23:14:10.496Z,4.77
2018-08-20T23:16:39.632Z,4.40
2018-08-20T23:19:08.667Z,4.20
2018-08-20T23:21:41.335Z,4.70
2018-08-20T23:24:10.749Z,4.57
2018-08-20T23:26:39.452Z,5.07
2018-08-20T23:29:08.296Z,4.23
2018-08-20T23:31:37.213Z,4.13
2018-08-20T23:34:08.627Z,4.70
2018-08-20T23:36:37.552Z,5.07
2018-08-20T23:39:09.222Z,4.63
2018-08-20T23:41:38.019Z,4.43
2018-08-20T23:44:07.284Z,4.53
2018-08-20T23:46:39.301Z,4.70
2018-08-20T23:49:07.940Z,4.63
2018-08-20T23:51:36.592Z,4.40
2018-08-20T23:54:05.310Z,4.80
2018-08-20T23:56:33.950Z,4.80
2018-08-20T23:59:02.528Z,4.70
